Time,TemperatureF,DewpointF,PressureIn,WindDirection,WindDirectionDegrees,WindSpeedMPH,WindSpeedGustMPH,Humidity,HourlyPrecipIn,Conditions,Clouds,dailyrainin,SoftwareType,DateUTC
2013-10-27 00:02:00,-999.0,-99.9,30.09,NW,315,0.0,0.0,-999,-99.99,,,-99.99,,2013-10-27 04:02:00,
2013-10-27 00:24:00,36.0,35.0,30.09,NW,315,0.0,0.0,97,0.00,,,0.00,,2013-10-27 04:24:00,
2013-10-27 00:54:00,36.0,35.0,30.09,NW,315,0.0,0.0,98,0.00,,,0.00,,2013-10-27 04:54:00,
2013-10-27 01:23:00,35.0,35.0,30.07,NW,315,0.0,0.0,99,0.00,,,0.00,,2013-10-27 05:23:00,
2013-10-27 01:52:00,34.0,34.0,30.06,NW,315,0.0,0.0,99,0.00,,,0.00,,2013-10-27 05:52:00,
2013-10-27 02:22:00,34.0,34.0,30.06,NW,315,0.0,0.0,99,0.00,,,0.00,,2013-10-27 06:22:00,
2013-10-27 02:42:00,33.0,33.0,30.06,NW,315,0.0,0.0,99,0.00,,,0.00,,2013-10-27 06:42:00,
2013-10-27 02:53:00,33.0,33.0,30.06,NW,315,0.0,0.0,99,0.00,,,0.00,,2013-10-27 06:53:00,
2013-10-27 03:12:00,33.0,33.0,30.06,NW,315,0.0,0.0,99,0.00,,,0.00,,2013-10-27 07:12:00,
2013-10-27 03:22:00,33.0,33.0,30.07,NW,315,0.0,0.0,99,0.00,,,0.00,,2013-10-27 07:22:00,
2013-10-27 03:52:00,33.0,33.0,30.07,NW,315,0.0,0.0,99,0.00,,,0.00,,2013-10-27 07:52:00,
2013-10-27 04:22:00,33.0,33.0,30.06,NW,315,0.0,0.0,99,0.00,,,0.00,,2013-10-27 08:22:00,
2013-10-27 04:52:00,33.0,33.0,30.05,NW,315,0.0,0.0,99,0.00,,,0.00,,2013-10-27 08:52:00,
2013-10-27 05:21:00,33.0,33.0,30.05,NW,315,0.0,0.0,99,0.00,,,0.00,,2013-10-27 09:21:00,
2013-10-27 05:54:00,32.0,32.0,30.06,NW,315,0.0,0.0,99,0.00,,,0.00,,2013-10-27 09:54:00,
2013-10-27 06:12:00,32.0,32.0,30.06,NW,315,0.0,0.0,99,0.00,,,0.00,,2013-10-27 10:12:00,
2013-10-27 06:23:00,32.0,32.0,30.06,NW,315,0.0,0.0,99,0.00,,,0.00,,2013-10-27 10:23:00,
2013-10-27 06:53:00,31.0,31.0,30.06,NW,315,0.0,0.0,99,0.00,,,0.00,,2013-10-27 10:53:00,
2013-10-27 07:22:00,30.0,30.0,30.08,NW,315,0.0,0.0,99,0.00,,,0.00,,2013-10-27 11:22:00,
2013-10-27 07:52:00,30.0,30.0,30.08,NW,315,0.0,0.0,99,0.00,,,0.00,,2013-10-27 11:52:00,
2013-10-27 08:22:00,30.0,30.0,30.08,NW,315,0.0,0.0,99,0.00,,,0.00,,2013-10-27 12:22:00,
2013-10-27 08:52:00,30.0,30.0,30.09,NW,315,0.0,0.0,99,0.00,,,0.00,,2013-10-27 12:52:00,
2013-10-27 09:21:00,30.0,30.0,30.09,NW,315,0.0,0.0,99,0.00,,,0.00,,2013-10-27 13:21:00,
2013-10-27 09:52:00,32.0,32.0,30.10,NW,315,0.0,0.0,99,0.00,,,0.00,,2013-10-27 13:52:00,
2013-10-27 10:22:00,36.0,36.0,30.11,NW,315,0.0,0.0,99,0.00,,,0.00,,2013-10-27 14:22:00,
2013-10-27 11:54:00,47.0,42.0,30.11,NW,315,0.0,0.0,82,0.00,,,0.00,,2013-10-27 15:54:00,
2013-10-27 12:24:00,50.0,42.0,30.10,SSW,193,0.0,0.0,73,0.00,,,0.00,,2013-10-27 16:24:00,
2013-10-27 12:43:00,51.0,40.0,30.10,WSW,247,0.0,0.0,65,0.00,,,0.00,,2013-10-27 16:43:00,
2013-10-27 12:53:00,51.0,40.0,30.10,WSW,247,0.0,0.0,65,0.00,,,0.00,,2013-10-27 16:53:00,
2013-10-27 13:22:00,52.0,37.0,30.09,West,271,2.0,0.0,57,0.00,,,0.00,,2013-10-27 17:22:00,
2013-10-27 13:53:00,53.0,37.0,30.08,NW,306,3.0,6.0,55,0.00,,,0.00,,2013-10-27 17:53:00,
2013-10-27 14:22:00,53.0,36.0,30.06,WNW,292,1.0,7.0,52,0.00,,,0.00,,2013-10-27 18:22:00,
2013-10-27 14:43:00,54.0,36.0,30.05,SSW,206,0.0,0.0,51,0.00,,,0.00,,2013-10-27 18:43:00,
2013-10-27 14:52:00,54.0,36.0,30.05,WSW,253,6.0,12.0,50,0.00,,,0.00,,2013-10-27 18:52:00,
2013-10-27 15:22:00,54.0,36.0,30.03,SW,230,3.0,7.0,50,0.00,,,0.00,,2013-10-27 19:22:00,
2013-10-27 15:42:00,54.0,36.0,30.03,WNW,294,5.0,7.0,50,0.00,,,0.00,,2013-10-27 19:42:00,
2013-10-27 15:52:00,55.0,36.0,30.03,West,262,10.0,14.0,49,0.00,,,0.00,,2013-10-27 19:52:00,
2013-10-27 16:22:00,55.0,36.0,30.03,WNW,296,2.0,0.0,49,0.00,,,0.00,,2013-10-27 20:22:00,
2013-10-27 16:52:00,55.0,36.0,30.03,WSW,244,0.0,0.0,49,0.00,,,0.00,,2013-10-27 20:52:00,
2013-10-27 17:21:00,55.0,35.0,30.03,NW,318,0.0,0.0,47,0.00,,,0.00,,2013-10-27 21:21:00,
2013-10-27 17:43:00,55.0,35.0,30.03,West,269,5.0,16.0,47,0.00,,,0.00,,2013-10-27 21:43:00,
2013-10-27 17:54:00,55.0,35.0,30.03,WSW,254,5.0,7.0,47,0.00,,,0.00,,2013-10-27 21:54:00,
2013-10-27 18:24:00,55.0,35.0,30.02,WNW,282,5.0,12.0,46,0.00,,,0.00,,2013-10-27 22:24:00,
2013-10-27 18:43:00,54.0,34.0,30.02,West,264,3.0,9.0,47,0.00,,,0.00,,2013-10-27 22:43:00,
2013-10-27 18:54:00,53.0,35.0,30.02,WSW,242,0.0,7.0,50,0.00,,,0.00,,2013-10-27 22:54:00,
2013-10-27 19:11:00,53.0,35.0,30.02,SW,220,0.0,0.0,50,0.00,,,0.00,,2013-10-27 23:11:00,
2013-10-27 19:22:00,51.0,34.0,30.03,SW,220,0.0,0.0,52,0.00,,,0.00,,2013-10-27 23:22:00,
2013-10-27 19:52:00,49.0,36.0,30.03,SW,220,0.0,0.0,60,0.00,,,0.00,,2013-10-27 23:52:00,
2013-10-27 20:11:00,48.0,36.0,30.03,SW,220,0.0,0.0,63,0.00,,,0.00,,2013-10-28 00:11:00,
2013-10-27 20:22:00,46.0,36.0,30.03,SW,220,0.0,0.0,68,0.00,,,0.00,,2013-10-28 00:22:00,
2013-10-27 20:43:00,46.0,37.0,30.03,SW,220,0.0,0.0,70,0.00,,,0.00,,2013-10-28 00:43:00,
2013-10-27 20:52:00,45.0,37.0,30.03,SW,220,0.0,0.0,72,0.00,,,0.00,,2013-10-28 00:52:00,
2013-10-27 21:21:00,42.0,36.0,30.03,SW,220,0.0,0.0,79,0.00,,,0.00,,2013-10-28 01:21:00,
2013-10-27 21:52:00,41.0,36.0,30.04,SW,220,0.0,0.0,83,0.00,,,0.00,,2013-10-28 01:52:00,
2013-10-27 22:12:00,40.0,36.0,30.04,SW,220,0.0,0.0,84,0.00,,,0.00,,2013-10-28 02:12:00,
2013-10-27 22:22:00,39.0,35.0,30.04,SW,220,0.0,0.0,87,0.00,,,0.00,,2013-10-28 02:22:00,
2013-10-27 22:53:00,39.0,36.0,30.05,SW,220,0.0,0.0,90,0.00,,,0.00,,2013-10-28 02:53:00,
2013-10-27 23:22:00,38.0,36.0,30.06,SW,220,0.0,0.0,92,0.00,,,0.00,,2013-10-28 03:22:00,
2013-10-27 23:44:00,37.0,35.0,30.06,SW,220,0.0,0.0,92,0.00,,,0.00,,2013-10-28 03:44:00,
2013-10-27 23:54:00,37.0,35.0,30.07,SW,220,0.0,0.0,93,0.00,,,0.00,,2013-10-28 03:54:00,